Terminal Aerodrome Forecast
Issued by NWS Sterling, VA

Current Version | Previous Version | Graphics & Text | Print | Product List | Glossary On
Versions: 1 2 3 4 5 6 7 8 9 10 11 12 13 14 15 16 17 18 19 20 21 22 23 24
000
FTUS41 KLWX 261124
TAFIAD
TAF
KIAD 261124Z 2612/2718 33007KT 2SM BR OVC005
     FM261330 33005KT 4SM BR BKN005 OVC010
     FM261500 33006KT P6SM BKN015
     FM261800 33005KT P6SM SCT035
     FM270300 15004KT 6SM BR FEW040
     FM270900 15004KT 3SM BR SCT250
     FM271500 17007KT P6SM SCT250=

USA.gov is the U.S. government's official web portal to all federal, state and local government web resources and services.